createdAt,value
2018-07-21T00:01:21.304Z,20.09
2018-07-21T00:03:53.436Z,20.08
2018-07-21T00:06:25.550Z,20.09
2018-07-21T00:08:57.667Z,20.02
2018-07-21T00:11:29.804Z,20.03
2018-07-21T00:14:01.887Z,19.88
2018-07-21T00:16:33.985Z,19.70
2018-07-21T00:19:06.283Z,19.58
2018-07-21T00:21:38.393Z,19.58
2018-07-21T00:24:10.450Z,19.48
2018-07-21T00:26:47.370Z,19.36
2018-07-21T00:29:19.868Z,19.36
2018-07-21T00:31:51.914Z,19.37
2018-07-21T00:34:23.944Z,19.18
2018-07-21T00:36:56.028Z,19.16
2018-07-21T00:39:28.083Z,19.27
2018-07-21T00:42:00.150Z,19.46
2018-07-21T00:44:32.183Z,19.50
2018-07-21T00:47:04.251Z,19.43
2018-07-21T00:49:36.359Z,19.30
2018-07-21T00:52:08.433Z,19.27
2018-07-21T00:54:40.487Z,19.27
2018-07-21T00:57:12.591Z,19.25
2018-07-21T00:59:44.695Z,19.32
2018-07-21T01:02:16.766Z,19.28
2018-07-21T01:04:48.811Z,19.29
2018-07-21T01:07:20.871Z,19.32
2018-07-21T01:09:53.976Z,19.19
2018-07-21T01:12:26.071Z,19.10
2018-07-21T01:14:58.195Z,19.11
2018-07-21T01:17:30.271Z,19.09
2018-07-21T01:20:02.428Z,19.04
2018-07-21T01:22:34.701Z,18.99
2018-07-21T01:25:06.980Z,18.90
2018-07-21T01:27:39.047Z,18.93
2018-07-21T01:30:11.095Z,18.93
2018-07-21T01:32:43.191Z,18.98
2018-07-21T01:35:15.224Z,19.00
2018-07-21T01:37:47.318Z,18.98
2018-07-21T01:40:19.384Z,18.95
2018-07-21T01:42:51.643Z,18.96
2018-07-21T01:45:23.683Z,18.95
2018-07-21T01:47:55.727Z,18.90
2018-07-21T01:50:28.023Z,18.86
2018-07-21T01:53:00.116Z,18.87
2018-07-21T01:55:32.119Z,18.90
2018-07-21T01:58:04.325Z,18.78
2018-07-21T02:00:36.442Z,18.82
2018-07-21T02:03:08.662Z,18.78
2018-07-21T02:05:40.740Z,18.83
2018-07-21T02:08:12.812Z,18.94
2018-07-21T02:10:44.926Z,19.00
2018-07-21T02:13:17.736Z,19.08
2018-07-21T02:15:49.778Z,18.95
2018-07-21T02:18:21.883Z,19.06
2018-07-21T02:20:53.949Z,19.12
2018-07-21T02:23:26.020Z,19.27
2018-07-21T02:25:58.070Z,19.24
2018-07-21T02:28:31.771Z,19.08
2018-07-21T02:31:03.839Z,19.09
2018-07-21T02:33:35.909Z,19.06
2018-07-21T02:36:07.976Z,19.12
2018-07-21T02:38:40.028Z,19.11
2018-07-21T02:41:12.098Z,19.24
2018-07-21T02:43:44.163Z,19.24
2018-07-21T02:46:16.235Z,19.30
2018-07-21T02:48:48.290Z,19.35
2018-07-21T02:51:20.351Z,19.34
2018-07-21T02:53:52.536Z,19.37
2018-07-21T02:56:24.710Z,19.39
2018-07-21T02:58:56.731Z,19.33
2018-07-21T03:01:28.780Z,19.31
2018-07-21T03:04:00.825Z,19.33
2018-07-21T03:06:32.872Z,19.27
2018-07-21T03:09:07.142Z,19.33
2018-07-21T03:11:39.559Z,19.27
2018-07-21T03:14:11.679Z,19.35
2018-07-21T03:16:43.836Z,19.38
2018-07-21T03:19:15.941Z,19.36
2018-07-21T03:21:48.063Z,19.37
2018-07-21T03:24:20.166Z,19.37
2018-07-21T03:26:52.284Z,19.32
2018-07-21T03:29:24.371Z,19.29
2018-07-21T03:31:57.244Z,19.28
2018-07-21T03:34:29.356Z,19.32
2018-07-21T03:37:01.433Z,19.37
2018-07-21T03:39:33.564Z,19.35
2018-07-21T03:42:05.656Z,19.46
2018-07-21T03:44:37.780Z,19.43
2018-07-21T03:47:09.930Z,19.46
2018-07-21T03:49:42.024Z,19.45
2018-07-21T03:52:14.137Z,19.41
2018-07-21T03:54:46.207Z,19.49
2018-07-21T03:57:18.342Z,19.52
2018-07-21T03:59:50.408Z,19.42
2018-07-21T04:02:22.504Z,19.45
2018-07-21T04:04:54.663Z,19.47
2018-07-21T04:07:26.813Z,19.52
2018-07-21T04:09:58.927Z,19.57
2018-07-21T04:12:31.027Z,19.52
2018-07-21T04:15:03.376Z,19.51
2018-07-21T04:17:35.450Z,19.51
2018-07-21T04:20:07.599Z,19.56
2018-07-21T04:22:39.740Z,19.66
2018-07-21T04:25:11.775Z,19.66
2018-07-21T04:27:43.840Z,19.77
2018-07-21T04:30:15.964Z,19.77
2018-07-21T04:32:48.139Z,19.72
2018-07-21T04:35:20.255Z,19.92
2018-07-21T04:37:52.352Z,19.88
2018-07-21T04:40:24.453Z,19.82
2018-07-21T04:42:56.583Z,19.84
2018-07-21T04:45:28.681Z,19.98
2018-07-21T04:48:00.824Z,20.03
2018-07-21T04:50:32.900Z,20.12
2018-07-21T04:53:05.282Z,20.15
2018-07-21T04:55:37.406Z,20.18
2018-07-21T04:58:09.542Z,20.35
2018-07-21T05:00:41.676Z,20.35
2018-07-21T05:03:13.719Z,20.41
2018-07-21T05:05:45.788Z,20.51
2018-07-21T05:08:17.892Z,20.55
2018-07-21T05:10:50.011Z,20.79
2018-07-21T05:13:22.067Z,20.95
2018-07-21T05:15:54.251Z,21.03
2018-07-21T05:18:26.289Z,21.30
2018-07-21T05:20:58.462Z,21.35
2018-07-21T05:23:30.581Z,21.55
2018-07-21T05:26:02.710Z,21.91
2018-07-21T05:28:34.790Z,22.02
2018-07-21T05:31:07.215Z,22.02
2018-07-21T05:33:39.428Z,21.99
2018-07-21T05:36:11.504Z,21.89
2018-07-21T05:38:43.659Z,21.99
2018-07-21T05:41:15.827Z,22.11
2018-07-21T05:43:48.001Z,22.37
2018-07-21T05:46:20.063Z,22.17
2018-07-21T05:48:52.191Z,22.16
2018-07-21T05:51:24.303Z,22.16
2018-07-21T05:53:56.464Z,22.37
2018-07-21T05:56:28.647Z,22.31
2018-07-21T05:59:00.756Z,22.51
2018-07-21T06:01:32.849Z,22.75
2018-07-21T06:04:04.959Z,22.75
2018-07-21T06:06:37.052Z,22.80
2018-07-21T06:09:10.468Z,22.89
2018-07-21T06:11:42.588Z,22.87
2018-07-21T06:14:14.716Z,22.95
2018-07-21T06:16:46.867Z,23.05
2018-07-21T06:19:19.019Z,22.97
2018-07-21T06:21:51.142Z,23.01
2018-07-21T06:24:23.304Z,23.05
2018-07-21T06:26:55.429Z,22.75
2018-07-21T06:29:27.515Z,22.71
2018-07-21T06:31:59.608Z,22.74
2018-07-21T06:34:31.709Z,22.73
2018-07-21T06:37:03.895Z,22.64
2018-07-21T06:39:36.013Z,22.53
2018-07-21T06:42:08.321Z,22.49
2018-07-21T06:44:40.412Z,22.36
2018-07-21T06:47:12.502Z,22.37
2018-07-21T06:49:44.547Z,22.34
2018-07-21T06:52:16.634Z,22.39
2018-07-21T06:54:48.808Z,22.39
2018-07-21T06:57:20.904Z,22.45
2018-07-21T06:59:53.012Z,22.41
2018-07-21T07:02:25.152Z,22.38
2018-07-21T07:04:57.221Z,22.52
2018-07-21T07:07:29.328Z,22.50
2018-07-21T07:10:01.559Z,22.32
2018-07-21T07:12:33.618Z,22.31
2018-07-21T07:15:05.845Z,22.28
2018-07-21T07:17:38.004Z,22.28
2018-07-21T07:20:10.151Z,22.43
2018-07-21T07:22:42.277Z,22.48
2018-07-21T07:25:14.412Z,22.52
2018-07-21T07:27:46.511Z,22.46
2018-07-21T07:30:18.617Z,22.58
2018-07-21T07:32:50.738Z,22.65
2018-07-21T07:35:22.829Z,22.75
2018-07-21T07:37:55.014Z,22.94
2018-07-21T07:40:27.141Z,23.10
2018-07-21T07:42:59.267Z,23.38
2018-07-21T07:45:31.371Z,23.63
2018-07-21T07:48:03.533Z,23.69
2018-07-21T07:50:35.616Z,23.84
2018-07-21T07:53:07.668Z,23.93
2018-07-21T07:55:39.818Z,24.37
2018-07-21T07:58:11.925Z,24.29
2018-07-21T08:00:44.092Z,24.61
2018-07-21T08:03:16.279Z,24.83
2018-07-21T08:05:48.758Z,25.34
2018-07-21T08:08:20.916Z,25.88
2018-07-21T08:10:53.832Z,26.91
2018-07-21T08:13:25.956Z,27.23
2018-07-21T08:15:59.548Z,27.29
2018-07-21T08:18:31.667Z,27.40
2018-07-21T08:21:03.790Z,27.38
2018-07-21T08:23:35.903Z,26.21
2018-07-21T08:26:08.018Z,25.86
2018-07-21T08:28:40.111Z,26.40
2018-07-21T08:31:12.247Z,26.18
2018-07-21T08:33:44.667Z,26.82
2018-07-21T08:36:16.767Z,26.98
2018-07-21T08:38:50.036Z,27.15
2018-07-21T08:41:22.151Z,27.78
2018-07-21T08:43:54.293Z,28.10
2018-07-21T08:46:26.424Z,27.70
2018-07-21T08:48:58.488Z,27.92
2018-07-21T08:51:30.639Z,27.68
2018-07-21T08:54:02.802Z,27.68
2018-07-21T08:56:34.873Z,27.55
2018-07-21T08:59:06.979Z,27.71
2018-07-21T09:01:39.171Z,28.24
2018-07-21T09:04:11.269Z,28.32
2018-07-21T09:06:43.423Z,27.71
2018-07-21T09:09:15.604Z,28.25
2018-07-21T09:11:47.755Z,28.31
2018-07-21T09:14:19.901Z,28.20
2018-07-21T09:16:52.029Z,28.46
2018-07-21T09:19:24.643Z,27.98
2018-07-21T09:21:56.780Z,28.26
2018-07-21T09:24:28.894Z,28.30
2018-07-21T09:27:00.992Z,28.10
2018-07-21T09:29:33.052Z,27.47
2018-07-21T09:32:05.493Z,27.90
2018-07-21T09:34:37.608Z,27.95
2018-07-21T09:37:10.043Z,27.85
2018-07-21T09:45:37.465Z,28.25
2018-07-21T09:48:09.643Z,28.56
2018-07-21T09:50:41.784Z,28.23
2018-07-21T09:53:14.963Z,27.44
2018-07-21T09:55:50.901Z,28.00
2018-07-21T09:58:24.079Z,28.35
2018-07-21T10:01:02.041Z,28.27
2018-07-21T10:03:34.620Z,28.12
2018-07-21T10:06:06.724Z,27.76
2018-07-21T10:08:38.851Z,27.52
2018-07-21T10:11:11.032Z,27.47
2018-07-21T10:13:43.177Z,27.68
2018-07-21T10:16:15.274Z,26.75
2018-07-21T10:18:47.439Z,27.43
2018-07-21T10:21:19.542Z,27.48
2018-07-21T10:23:51.725Z,27.36
2018-07-21T10:26:29.344Z,27.04
2018-07-21T10:29:10.541Z,27.39
2018-07-21T10:31:43.499Z,27.30
2018-07-21T10:34:15.594Z,26.49
2018-07-21T10:36:47.711Z,26.68
2018-07-21T10:39:19.811Z,27.46
2018-07-21T10:41:51.927Z,27.25
2018-07-21T10:44:24.120Z,27.06
2018-07-21T10:46:56.277Z,26.92
2018-07-21T10:49:29.010Z,27.09
2018-07-21T10:52:01.069Z,27.27
2018-07-21T10:54:33.213Z,27.45
2018-07-21T10:57:05.306Z,27.65
2018-07-21T10:59:37.369Z,27.38
2018-07-21T11:02:09.564Z,27.49
2018-07-21T11:04:41.645Z,27.19
2018-07-21T11:07:13.675Z,26.91
2018-07-21T11:09:45.814Z,27.46
2018-07-21T11:12:17.904Z,27.26
2018-07-21T11:14:49.961Z,27.18
2018-07-21T11:17:22.004Z,26.72
2018-07-21T11:19:54.316Z,26.69
2018-07-21T11:22:26.379Z,27.40
2018-07-21T11:24:58.472Z,27.73
2018-07-21T11:27:30.530Z,27.87
2018-07-21T11:30:03.139Z,27.88
2018-07-21T11:32:35.195Z,27.45
2018-07-21T11:35:07.264Z,27.56
2018-07-21T11:37:39.330Z,27.94
2018-07-21T11:40:11.415Z,28.15
2018-07-21T11:42:43.475Z,27.58
2018-07-21T11:45:15.597Z,27.48
2018-07-21T11:47:47.666Z,27.74
2018-07-21T11:50:19.728Z,27.76
2018-07-21T11:52:51.841Z,28.12
2018-07-21T11:55:23.903Z,28.31
2018-07-21T11:57:55.978Z,28.49
2018-07-21T12:00:28.027Z,29.28
2018-07-21T12:03:00.104Z,29.55
2018-07-21T12:05:32.214Z,29.01
2018-07-21T12:08:04.289Z,28.70
2018-07-21T12:10:36.394Z,29.17
2018-07-21T12:13:08.481Z,28.69
2018-07-21T12:15:40.554Z,27.63
2018-07-21T12:18:12.619Z,28.00
2018-07-21T12:20:44.769Z,27.99
2018-07-21T12:23:16.807Z,27.05
2018-07-21T12:25:48.905Z,27.56
2018-07-21T12:28:21.061Z,27.81
2018-07-21T12:30:53.257Z,27.65
2018-07-21T12:33:25.346Z,27.63
2018-07-21T12:35:57.411Z,27.49
2018-07-21T12:38:29.467Z,27.71
2018-07-21T12:41:01.601Z,26.77
2018-07-21T12:43:33.621Z,26.62
2018-07-21T12:46:05.720Z,26.56
2018-07-21T12:48:37.745Z,26.39
2018-07-21T12:51:09.868Z,25.89
2018-07-21T12:53:41.924Z,25.75
2018-07-21T12:56:14.003Z,25.62
2018-07-21T12:58:46.067Z,25.42
2018-07-21T13:01:18.526Z,25.42
2018-07-21T13:03:50.592Z,25.25
2018-07-21T13:06:22.645Z,25.05
2018-07-21T13:08:54.780Z,25.05
2018-07-21T13:11:26.839Z,25.21
2018-07-21T13:13:58.916Z,24.96
2018-07-21T13:16:30.976Z,24.52
2018-07-21T13:19:03.132Z,24.49
2018-07-21T13:21:35.395Z,24.50
2018-07-21T13:24:07.510Z,24.63
2018-07-21T13:26:39.639Z,24.79
2018-07-21T13:29:11.709Z,25.08
2018-07-21T13:31:43.796Z,25.03
2018-07-21T13:34:15.902Z,25.26
2018-07-21T13:36:47.952Z,25.20
2018-07-21T13:39:20.101Z,24.95
2018-07-21T13:41:52.193Z,24.77
2018-07-21T13:44:24.308Z,24.46
2018-07-21T13:46:56.480Z,24.37
2018-07-21T13:49:28.575Z,24.01
2018-07-21T13:52:00.645Z,24.59
2018-07-21T13:54:32.695Z,24.74
2018-07-21T13:57:04.796Z,24.65
2018-07-21T13:59:36.916Z,24.52
2018-07-21T14:02:09.006Z,25.00
2018-07-21T14:04:41.043Z,24.94
2018-07-21T14:07:13.973Z,25.01
2018-07-21T14:09:46.058Z,24.98
2018-07-21T14:12:18.110Z,24.95
2018-07-21T14:14:50.179Z,25.29
2018-07-21T14:17:22.296Z,25.19
2018-07-21T14:19:54.395Z,25.20
2018-07-21T14:22:26.510Z,25.01
2018-07-21T14:24:58.627Z,25.04
2018-07-21T14:27:30.691Z,25.21
2018-07-21T14:30:02.924Z,25.41
2018-07-21T14:32:34.920Z,25.45
2018-07-21T14:35:06.999Z,26.12
2018-07-21T14:37:39.062Z,25.95
2018-07-21T14:40:11.225Z,26.59
2018-07-21T14:42:46.434Z,26.32
2018-07-21T14:45:18.682Z,25.96
2018-07-21T14:47:50.795Z,25.87
2018-07-21T14:50:22.879Z,25.63
2018-07-21T14:52:54.981Z,25.88
2018-07-21T14:55:27.204Z,26.22
2018-07-21T14:57:59.262Z,25.98
2018-07-21T15:00:31.333Z,25.97
2018-07-21T15:03:03.477Z,26.14
2018-07-21T15:05:35.660Z,25.84
2018-07-21T15:08:07.934Z,25.90
2018-07-21T15:10:40.151Z,25.80
2018-07-21T15:13:12.379Z,25.66
2018-07-21T15:15:44.595Z,25.79
2018-07-21T15:18:16.724Z,25.46
2018-07-21T15:20:48.870Z,25.44
2018-07-21T15:23:21.268Z,25.27
2018-07-21T15:25:53.393Z,25.09
2018-07-21T15:28:25.460Z,25.31
2018-07-21T15:30:57.521Z,25.24
2018-07-21T15:33:29.749Z,25.09
2018-07-21T15:36:01.856Z,25.09
2018-07-21T15:38:33.923Z,24.56
2018-07-21T15:41:06.059Z,24.78
2018-07-21T15:43:38.164Z,24.77
2018-07-21T15:46:10.331Z,24.64
2018-07-21T15:48:42.391Z,24.25
2018-07-21T15:51:15.026Z,24.59
2018-07-21T15:53:47.152Z,24.40
2018-07-21T15:56:19.309Z,24.53
2018-07-21T15:58:51.370Z,24.57
2018-07-21T16:01:23.465Z,24.33
2018-07-21T16:03:55.514Z,24.41
2018-07-21T16:06:27.559Z,24.15
2018-07-21T16:08:59.609Z,23.80
2018-07-21T16:11:31.695Z,23.75
2018-07-21T16:14:03.861Z,23.73
2018-07-21T16:16:35.965Z,23.57
2018-07-21T16:19:08.036Z,23.73
2018-07-21T16:21:40.154Z,23.56
2018-07-21T16:24:12.206Z,23.53
2018-07-21T16:26:44.301Z,23.60
2018-07-21T16:29:16.353Z,23.66
2018-07-21T16:31:48.416Z,23.57
2018-07-21T16:34:20.462Z,23.37
2018-07-21T16:36:52.549Z,23.23
2018-07-21T16:39:24.611Z,23.12
2018-07-21T16:41:56.681Z,23.10
2018-07-21T16:44:28.748Z,23.13
2018-07-21T16:47:00.867Z,23.09
2018-07-21T16:49:32.939Z,22.78
2018-07-21T16:52:05.045Z,22.87
2018-07-21T16:54:37.126Z,22.85
2018-07-21T16:57:09.204Z,22.75
2018-07-21T16:59:41.258Z,22.68
2018-07-21T17:02:13.329Z,22.55
2018-07-21T17:04:45.377Z,22.62
2018-07-21T17:07:17.411Z,22.58
2018-07-21T17:09:49.480Z,22.63
2018-07-21T17:12:21.579Z,22.76
2018-07-21T17:14:53.633Z,22.69
2018-07-21T17:17:25.711Z,22.58
2018-07-21T17:19:57.813Z,22.49
2018-07-21T17:22:29.891Z,22.53
2018-07-21T17:25:02.132Z,22.47
2018-07-21T17:27:34.252Z,22.40
2018-07-21T17:30:06.730Z,22.40
2018-07-21T17:32:38.819Z,22.34
2018-07-21T17:35:11.659Z,22.24
2018-07-21T17:37:43.748Z,22.35
2018-07-21T17:40:15.832Z,22.32
2018-07-21T17:42:47.935Z,22.14
2018-07-21T17:45:19.997Z,22.12
2018-07-21T17:47:52.093Z,22.11
2018-07-21T17:50:24.322Z,22.01
2018-07-21T17:52:56.467Z,21.98
2018-07-21T17:55:28.551Z,21.93
2018-07-21T17:58:00.757Z,21.95
2018-07-21T18:00:32.823Z,21.86
2018-07-21T18:03:04.933Z,21.85
2018-07-21T18:05:36.993Z,21.83
2018-07-21T18:08:09.059Z,21.72
2018-07-21T18:10:41.183Z,21.70
2018-07-21T18:13:13.265Z,21.65
2018-07-21T18:15:45.362Z,21.64
2018-07-21T18:18:17.375Z,21.51
2018-07-21T18:20:49.421Z,21.55
2018-07-21T18:23:21.535Z,21.52
2018-07-21T18:25:53.592Z,21.52
2018-07-21T18:28:25.730Z,21.53
2018-07-21T18:30:57.775Z,21.56
2018-07-21T18:33:29.882Z,21.48
2018-07-21T18:36:01.928Z,21.43
2018-07-21T18:38:34.027Z,21.41
2018-07-21T18:41:06.968Z,21.36
2018-07-21T18:43:39.384Z,21.28
2018-07-21T18:46:11.574Z,21.21
2018-07-21T18:48:43.676Z,21.24
2018-07-21T18:51:15.793Z,21.11
2018-07-21T18:53:47.903Z,21.11
2018-07-21T18:56:19.938Z,21.04
2018-07-21T18:58:52.035Z,21.02
2018-07-21T19:01:24.108Z,21.10
2018-07-21T19:03:56.219Z,21.01
2018-07-21T19:06:28.946Z,21.00
2018-07-21T19:09:02.218Z,21.03
2018-07-21T19:11:34.326Z,20.97
2018-07-21T19:14:06.398Z,20.96
2018-07-21T19:16:40.018Z,20.89
2018-07-21T19:19:12.047Z,20.84
2018-07-21T19:21:44.141Z,20.81
2018-07-21T19:24:16.320Z,20.71
2018-07-21T19:26:54.076Z,20.74
2018-07-21T19:29:26.211Z,20.70
2018-07-21T19:32:04.117Z,20.66
2018-07-21T19:34:36.154Z,20.74
2018-07-21T19:37:14.054Z,20.73
2018-07-21T19:39:46.176Z,20.72
2018-07-21T19:42:18.267Z,20.63
2018-07-21T19:44:50.326Z,20.68
2018-07-21T19:47:22.603Z,20.70
2018-07-21T19:49:54.603Z,20.71
2018-07-21T19:52:26.680Z,20.64
2018-07-21T19:54:58.760Z,20.54
2018-07-21T19:57:30.838Z,20.63
2018-07-21T20:00:03.447Z,20.64
2018-07-21T20:02:35.570Z,20.64
2018-07-21T20:05:07.706Z,20.59
2018-07-21T20:07:39.777Z,20.51
2018-07-21T20:10:11.899Z,20.48
2018-07-21T20:12:43.983Z,20.62
2018-07-21T20:15:16.125Z,20.55
2018-07-21T20:17:48.210Z,20.57
2018-07-21T20:20:20.264Z,20.54
2018-07-21T20:22:52.323Z,20.53
2018-07-21T20:25:24.432Z,20.50
2018-07-21T20:27:56.527Z,20.45
2018-07-21T20:30:28.609Z,20.41
2018-07-21T20:33:00.705Z,20.39
2018-07-21T20:35:32.746Z,20.28
2018-07-21T20:38:04.855Z,20.38
2018-07-21T20:40:36.947Z,20.35
2018-07-21T20:43:09.013Z,20.27
2018-07-21T20:45:41.106Z,20.34
2018-07-21T20:48:13.163Z,20.35
2018-07-21T20:50:45.266Z,20.28
2018-07-21T20:53:17.294Z,20.26
2018-07-21T20:55:49.419Z,20.30
2018-07-21T20:58:21.485Z,20.33
2018-07-21T21:00:53.557Z,20.37
2018-07-21T21:03:25.655Z,20.29
2018-07-21T21:05:57.731Z,20.23
2018-07-21T21:08:29.792Z,20.22
2018-07-21T21:11:01.914Z,20.23
2018-07-21T21:13:34.028Z,20.20
2018-07-21T21:16:06.095Z,20.17
2018-07-21T21:18:38.150Z,20.09
2018-07-21T21:21:10.230Z,20.07
2018-07-21T21:23:42.310Z,20.05
2018-07-21T21:26:14.394Z,20.12
2018-07-21T21:28:46.438Z,20.06
2018-07-21T21:31:18.521Z,20.04
2018-07-21T21:33:50.578Z,20.06
2018-07-21T21:36:22.620Z,19.97
2018-07-21T21:38:54.675Z,20.06
2018-07-21T21:41:26.751Z,19.96
2018-07-21T21:43:58.766Z,20.00
2018-07-21T21:46:30.836Z,19.95
2018-07-21T21:49:02.864Z,19.89
2018-07-21T21:51:34.933Z,19.88
2018-07-21T21:54:07.059Z,19.84
2018-07-21T21:56:39.132Z,19.72
2018-07-21T21:59:11.200Z,19.73
2018-07-21T22:01:43.270Z,19.69
2018-07-21T22:04:15.317Z,19.67
2018-07-21T22:06:47.357Z,19.60
2018-07-21T22:09:19.425Z,19.53
2018-07-21T22:11:51.523Z,19.48
2018-07-21T22:14:23.651Z,19.41
2018-07-21T22:16:55.666Z,19.27
2018-07-21T22:19:27.752Z,19.14
2018-07-21T22:21:59.796Z,19.11
2018-07-21T22:24:31.885Z,18.95
2018-07-21T22:27:04.047Z,18.83
2018-07-21T22:29:36.143Z,18.69
2018-07-21T22:32:08.214Z,18.63
2018-07-21T22:34:40.363Z,18.63
2018-07-21T22:37:12.402Z,18.66
2018-07-21T22:39:44.484Z,18.62
2018-07-21T22:42:16.523Z,18.50
2018-07-21T22:44:48.589Z,18.58
2018-07-21T22:47:20.674Z,18.62
2018-07-21T22:49:52.831Z,18.58
2018-07-21T22:52:24.937Z,18.62
2018-07-21T22:54:57.045Z,18.54
2018-07-21T22:57:29.275Z,18.47
2018-07-21T23:00:01.478Z,18.46
2018-07-21T23:02:33.619Z,18.39
2018-07-21T23:05:05.765Z,18.34
2018-07-21T23:07:37.867Z,18.25
2018-07-21T23:10:10.058Z,18.10
2018-07-21T23:12:42.123Z,18.05
2018-07-21T23:15:14.198Z,18.05
2018-07-21T23:17:46.273Z,18.05
2018-07-21T23:20:18.380Z,18.03
2018-07-21T23:22:50.426Z,17.99
2018-07-21T23:25:22.511Z,17.94
2018-07-21T23:27:54.631Z,17.88
2018-07-21T23:30:26.681Z,17.86
2018-07-21T23:32:58.761Z,17.85
2018-07-21T23:35:30.903Z,17.71
2018-07-21T23:38:03.010Z,17.72
2018-07-21T23:40:35.093Z,17.71
2018-07-21T23:43:07.210Z,17.77
2018-07-21T23:45:39.301Z,17.70
2018-07-21T23:48:11.424Z,17.73
2018-07-21T23:50:43.598Z,17.76
2018-07-21T23:53:22.411Z,17.78
2018-07-21T23:55:54.552Z,17.80
2018-07-21T23:58:26.759Z,17.75
